createdAt,value
2019-01-18T00:02:19.629Z,5.87
2019-01-18T00:04:46.880Z,6.60
2019-01-18T00:07:14.046Z,3.53
2019-01-18T00:09:41.222Z,1.87
2019-01-18T00:12:08.426Z,2.50
2019-01-18T00:14:35.634Z,4.97
2019-01-18T00:17:02.793Z,1.60
2019-01-18T00:19:29.972Z,2.83
2019-01-18T00:21:57.168Z,4.53
2019-01-18T00:24:24.374Z,3.03
2019-01-18T00:26:51.557Z,4.03
2019-01-18T00:29:18.748Z,4.63
2019-01-18T00:31:45.934Z,3.37
2019-01-18T00:34:13.121Z,9.03
2019-01-18T00:36:40.352Z,2.90
2019-01-18T00:39:07.598Z,3.10
2019-01-18T00:41:34.777Z,6.40
2019-01-18T00:44:01.977Z,2.80
2019-01-18T00:46:29.160Z,2.87
2019-01-18T00:48:56.346Z,5.20
2019-01-18T00:51:23.518Z,1.87
2019-01-18T00:53:50.724Z,5.43
2019-01-18T00:56:17.898Z,4.07
2019-01-18T00:58:45.103Z,3.20
2019-01-18T01:01:12.322Z,3.70
2019-01-18T01:03:39.573Z,6.17
2019-01-18T01:06:06.761Z,3.97
2019-01-18T01:08:33.936Z,2.73
2019-01-18T01:11:01.131Z,3.87
2019-01-18T01:13:28.312Z,2.17
2019-01-18T01:15:55.499Z,2.60
2019-01-18T01:18:22.682Z,3.70
2019-01-18T01:20:49.865Z,3.23
2019-01-18T01:23:17.081Z,2.07
2019-01-18T01:25:44.268Z,4.43
2019-01-18T01:28:11.442Z,1.03
2019-01-18T01:30:38.637Z,1.03
2019-01-18T01:33:06.370Z,1.30
2019-01-18T01:35:33.555Z,1.07
2019-01-18T01:38:00.733Z,0.87
2019-01-18T01:40:27.910Z,1.43
2019-01-18T01:42:55.097Z,1.60
2019-01-18T01:45:22.283Z,1.50
2019-01-18T01:47:49.469Z,4.67
2019-01-18T01:50:18.283Z,2.77
2019-01-18T01:52:45.457Z,1.13
2019-01-18T01:55:12.643Z,2.20
2019-01-18T01:57:39.813Z,2.07
2019-01-18T02:00:09.274Z,1.30
2019-01-18T02:02:36.463Z,2.77
2019-01-18T02:05:04.012Z,4.10
2019-01-18T02:07:31.203Z,2.87
2019-01-18T02:09:58.389Z,2.50
2019-01-18T02:12:25.639Z,3.67
2019-01-18T02:14:52.826Z,1.97
2019-01-18T02:17:20.010Z,2.33
2019-01-18T02:19:47.173Z,1.03
2019-01-18T02:22:14.372Z,1.17
2019-01-18T02:24:41.544Z,2.90
2019-01-18T02:27:08.710Z,3.03
2019-01-18T02:29:36.052Z,2.60
2019-01-18T02:32:03.259Z,2.70
2019-01-18T02:34:30.429Z,4.23
2019-01-18T02:36:57.597Z,3.50
2019-01-18T02:39:24.784Z,2.10
2019-01-18T02:41:51.975Z,3.63
2019-01-18T02:44:19.140Z,2.27
2019-01-18T02:46:46.318Z,1.20
2019-01-18T02:49:13.498Z,4.87
2019-01-18T02:51:40.671Z,1.47
2019-01-18T02:54:07.854Z,2.20
2019-01-18T02:56:35.024Z,8.07
2019-01-18T02:59:02.200Z,3.40
2019-01-18T03:01:29.378Z,1.93
2019-01-18T03:03:56.548Z,3.40
2019-01-18T03:06:23.736Z,1.63
2019-01-18T03:08:51.117Z,4.77
2019-01-18T03:11:18.305Z,1.17
2019-01-18T03:13:45.471Z,3.40
2019-01-18T03:16:12.666Z,1.10
2019-01-18T03:18:39.840Z,4.67
2019-01-18T03:21:07.022Z,1.70
2019-01-18T03:23:34.270Z,4.33
2019-01-18T03:26:01.433Z,3.97
2019-01-18T03:28:28.599Z,2.27
2019-01-18T03:30:55.805Z,10.83
2019-01-18T03:33:23.047Z,3.70
2019-01-18T03:35:50.296Z,3.67
2019-01-18T03:38:17.539Z,3.63
2019-01-18T03:40:44.740Z,4.10
2019-01-18T03:43:12.589Z,4.53
2019-01-18T03:45:39.743Z,2.83
2019-01-18T03:48:07.168Z,1.90
2019-01-18T03:50:34.342Z,6.50
2019-01-18T03:53:01.839Z,4.70
2019-01-18T03:55:29.060Z,3.10
2019-01-18T03:57:56.237Z,3.40
2019-01-18T04:00:26.165Z,1.20
2019-01-18T04:02:53.570Z,5.70
2019-01-18T04:05:20.763Z,2.70
2019-01-18T04:07:47.950Z,5.40
2019-01-18T04:10:22.694Z,2.87
2019-01-18T04:12:49.867Z,2.60
2019-01-18T04:15:18.665Z,2.33
2019-01-18T04:17:45.838Z,2.73
2019-01-18T04:20:13.995Z,3.63
2019-01-18T04:22:41.199Z,5.00
2019-01-18T04:25:10.703Z,2.67
2019-01-18T04:27:37.898Z,3.10
2019-01-18T04:30:06.694Z,1.87
2019-01-18T04:32:33.899Z,4.07
2019-01-18T04:37:41.759Z,3.93
2019-01-18T04:40:10.555Z,7.70
2019-01-18T04:42:37.747Z,5.27
2019-01-18T04:45:06.697Z,4.13
2019-01-18T04:47:33.876Z,6.67
2019-01-18T04:50:01.066Z,2.27
2019-01-18T04:52:28.237Z,3.47
2019-01-18T04:54:55.394Z,1.43
2019-01-18T04:57:22.598Z,3.43
2019-01-18T04:59:49.771Z,2.60
2019-01-18T05:02:16.956Z,8.73
2019-01-18T05:04:44.203Z,4.30
2019-01-18T05:07:11.362Z,2.73
2019-01-18T05:09:38.567Z,4.13
2019-01-18T05:12:05.738Z,1.70
2019-01-18T05:14:32.943Z,13.33
2019-01-18T05:17:00.111Z,7.00
2019-01-18T05:19:27.274Z,0.93
2019-01-18T05:21:54.477Z,3.53
2019-01-18T05:24:21.727Z,2.17
2019-01-18T05:26:48.898Z,4.07
2019-01-18T05:29:16.070Z,4.13
2019-01-18T05:31:43.251Z,1.63
2019-01-18T05:34:10.433Z,2.83
2019-01-18T05:36:37.610Z,4.60
2019-01-18T05:39:06.572Z,5.53
2019-01-18T05:41:33.764Z,1.27
2019-01-18T05:44:00.933Z,1.27
2019-01-18T05:46:28.111Z,1.40
2019-01-18T05:48:55.302Z,2.83
2019-01-18T05:51:22.471Z,2.93
2019-01-18T05:53:49.639Z,2.20
2019-01-18T05:56:16.844Z,1.87
2019-01-18T05:58:43.999Z,2.07
2019-01-18T06:01:11.169Z,0.80
2019-01-18T06:03:38.357Z,2.20
2019-01-18T06:06:05.577Z,3.77
2019-01-18T06:08:32.819Z,4.83
2019-01-18T06:10:59.983Z,4.47
2019-01-18T06:13:27.170Z,2.27
2019-01-18T06:15:54.344Z,3.87
2019-01-18T06:18:21.522Z,2.13
2019-01-18T06:20:48.727Z,4.03
2019-01-18T06:23:15.939Z,1.90
2019-01-18T06:25:43.212Z,5.87
2019-01-18T06:28:10.401Z,2.30
2019-01-18T06:30:37.569Z,1.87
2019-01-18T06:33:04.779Z,2.80
2019-01-18T06:35:32.030Z,1.03
2019-01-18T06:37:59.204Z,5.67
2019-01-18T06:40:26.400Z,1.43
2019-01-18T06:42:53.578Z,1.80
2019-01-18T06:45:22.435Z,4.77
2019-01-18T06:47:49.672Z,2.73
2019-01-18T06:50:17.518Z,4.13
2019-01-18T06:52:44.699Z,2.37
2019-01-18T06:55:11.938Z,4.47
2019-01-18T06:57:39.114Z,2.43
2019-01-18T07:00:13.934Z,3.33
2019-01-18T07:02:41.192Z,2.57
2019-01-18T07:05:09.042Z,3.73
2019-01-18T07:07:36.219Z,5.00
2019-01-18T07:10:05.037Z,3.17
2019-01-18T07:12:32.202Z,2.17
2019-01-18T07:14:59.390Z,2.37
2019-01-18T07:17:26.631Z,1.83
2019-01-18T07:19:53.818Z,3.10
2019-01-18T07:22:20.979Z,1.90
2019-01-18T07:24:48.197Z,4.03
2019-01-18T07:27:15.361Z,2.10
2019-01-18T07:29:42.528Z,2.60
2019-01-18T07:32:09.733Z,3.07
2019-01-18T07:34:36.913Z,1.60
2019-01-18T07:37:04.105Z,4.07
2019-01-18T07:39:31.361Z,3.07
2019-01-18T07:41:58.534Z,1.70
2019-01-18T07:44:25.737Z,4.37
2019-01-18T07:46:52.902Z,1.93
2019-01-18T07:49:20.089Z,1.70
2019-01-18T07:51:47.271Z,1.50
2019-01-18T07:54:14.454Z,4.13
2019-01-18T07:56:41.614Z,2.90
2019-01-18T07:59:08.802Z,1.63
2019-01-18T08:01:35.966Z,5.13
2019-01-18T08:04:03.151Z,4.07
2019-01-18T08:06:30.350Z,4.03
2019-01-18T08:08:57.522Z,1.77
2019-01-18T08:11:24.709Z,4.97
2019-01-18T08:13:51.878Z,2.03
2019-01-18T08:16:19.055Z,2.97
2019-01-18T08:18:46.251Z,2.27
2019-01-18T08:21:13.533Z,3.90
2019-01-18T08:23:40.746Z,1.97
2019-01-18T08:26:07.903Z,1.73
2019-01-18T08:28:35.066Z,5.40
2019-01-18T08:31:02.243Z,2.93
2019-01-18T08:33:29.405Z,2.27
2019-01-18T08:35:56.582Z,3.67
2019-01-18T08:38:23.760Z,4.63
2019-01-18T08:40:50.924Z,2.53
2019-01-18T08:43:18.110Z,2.47
2019-01-18T08:45:46.610Z,4.73
2019-01-18T08:48:13.776Z,3.17
2019-01-18T08:50:41.570Z,2.80
2019-01-18T08:53:08.743Z,2.60
2019-01-18T08:55:35.929Z,4.10
2019-01-18T08:58:03.127Z,6.17
2019-01-18T09:00:31.266Z,4.07
2019-01-18T09:02:58.459Z,3.83
2019-01-18T09:05:26.199Z,9.40
2019-01-18T09:07:53.409Z,2.90
2019-01-18T09:10:22.261Z,6.83
2019-01-18T09:12:49.438Z,4.83
2019-01-18T09:15:16.619Z,3.80
2019-01-18T09:17:43.850Z,2.53
2019-01-18T09:20:12.612Z,2.90
2019-01-18T09:22:39.786Z,4.23
2019-01-18T09:25:06.988Z,1.80
2019-01-18T09:27:34.164Z,6.20
2019-01-18T09:30:01.359Z,4.93
2019-01-18T09:32:28.523Z,3.13
2019-01-18T09:34:55.689Z,4.60
2019-01-18T09:37:22.866Z,4.37
2019-01-18T09:39:50.052Z,1.80
2019-01-18T09:42:17.229Z,7.33
2019-01-18T09:44:44.400Z,2.97
2019-01-18T09:47:11.586Z,4.97
2019-01-18T09:49:38.805Z,3.47
2019-01-18T09:52:05.977Z,2.53
2019-01-18T09:54:33.158Z,5.67
2019-01-18T09:57:00.344Z,6.30
2019-01-18T09:59:27.523Z,2.20
2019-01-18T10:01:54.714Z,2.40
2019-01-18T10:04:21.889Z,3.63
2019-01-18T10:06:49.071Z,4.63
2019-01-18T10:09:16.254Z,5.93
2019-01-18T10:11:43.446Z,5.60
2019-01-18T10:14:10.617Z,2.90
2019-01-18T10:16:37.870Z,7.67
2019-01-18T10:19:05.071Z,5.47
2019-01-18T10:21:32.842Z,7.40
2019-01-18T10:24:00.050Z,5.27
2019-01-18T10:26:27.226Z,4.50
2019-01-18T10:28:54.418Z,5.27
2019-01-18T10:31:21.605Z,2.77
2019-01-18T10:33:48.786Z,8.87
2019-01-18T10:36:15.977Z,5.67
2019-01-18T10:38:43.150Z,6.03
2019-01-18T10:41:10.335Z,4.10
2019-01-18T10:43:37.520Z,6.00
2019-01-18T10:46:04.784Z,6.63
2019-01-18T10:48:31.951Z,3.10
2019-01-18T10:50:59.163Z,6.13
2019-01-18T10:53:26.329Z,9.83
2019-01-18T10:55:53.620Z,2.37
2019-01-18T10:58:20.856Z,3.67
2019-01-18T11:00:48.022Z,5.80
2019-01-18T11:03:15.218Z,3.97
2019-01-18T11:05:42.379Z,5.37
2019-01-18T11:08:09.577Z,4.73
2019-01-18T11:10:36.746Z,4.27
2019-01-18T11:13:03.914Z,6.17
2019-01-18T11:15:36.028Z,3.87
2019-01-18T11:18:00.668Z,4.30
2019-01-18T11:20:29.472Z,3.93
2019-01-18T11:22:57.655Z,2.53
2019-01-18T11:25:31.526Z,4.63
2019-01-18T11:27:53.962Z,2.67
2019-01-18T11:30:21.139Z,2.87
2019-01-18T11:32:48.327Z,3.37
2019-01-18T11:35:15.489Z,4.63
2019-01-18T11:37:42.686Z,9.07
2019-01-18T11:40:13.885Z,5.67
2019-01-18T11:42:41.079Z,6.33
2019-01-18T11:45:09.645Z,6.50
2019-01-18T11:47:36.974Z,2.37
2019-01-18T11:50:05.919Z,5.30
2019-01-18T11:52:33.181Z,4.97
2019-01-18T11:55:00.471Z,4.63
2019-01-18T11:57:27.760Z,3.17
2019-01-18T11:59:54.940Z,5.90
2019-01-18T12:02:22.371Z,3.80
2019-01-18T12:04:50.330Z,3.77
2019-01-18T12:07:17.560Z,5.63
2019-01-18T12:09:44.739Z,4.40
2019-01-18T12:12:11.937Z,1.60
2019-01-18T12:14:39.129Z,6.67
2019-01-18T12:17:06.300Z,5.07
2019-01-18T12:19:33.479Z,5.77
2019-01-18T12:22:00.707Z,4.53
2019-01-18T12:24:27.889Z,3.63
2019-01-18T12:26:55.129Z,2.70
2019-01-18T12:29:23.025Z,5.93
2019-01-18T12:31:50.381Z,4.20
2019-01-18T12:34:17.566Z,2.60
2019-01-18T12:36:44.750Z,3.90
2019-01-18T12:39:11.931Z,8.37
2019-01-18T12:41:39.114Z,2.43
2019-01-18T12:44:06.274Z,3.97
2019-01-18T12:46:33.469Z,2.30
2019-01-18T12:49:00.646Z,3.33
2019-01-18T12:51:27.850Z,3.40
2019-01-18T12:53:55.020Z,2.97
2019-01-18T12:56:22.224Z,4.20
2019-01-18T12:58:49.397Z,3.57
2019-01-18T13:01:16.577Z,4.30
2019-01-18T13:03:43.756Z,5.03
2019-01-18T13:06:10.918Z,4.23
2019-01-18T13:08:38.117Z,5.83
2019-01-18T13:11:05.291Z,2.13
2019-01-18T13:13:32.468Z,3.53
2019-01-18T13:16:03.939Z,5.80
2019-01-18T13:18:31.591Z,2.63
2019-01-18T13:20:58.779Z,3.20
2019-01-18T13:23:25.947Z,3.03
2019-01-18T13:25:53.112Z,2.50
2019-01-18T13:28:20.305Z,3.87
2019-01-18T13:30:47.486Z,3.33
2019-01-18T13:33:14.667Z,4.23
2019-01-18T13:35:41.858Z,2.83
2019-01-18T13:38:09.029Z,5.10
2019-01-18T13:40:36.206Z,4.50
2019-01-18T13:43:03.410Z,2.93
2019-01-18T13:45:30.591Z,4.33
2019-01-18T13:47:57.841Z,9.33
2019-01-18T13:50:25.030Z,5.03
2019-01-18T13:52:52.288Z,4.07
2019-01-18T13:55:20.922Z,5.47
2019-01-18T13:57:48.108Z,3.97
2019-01-18T14:00:15.358Z,4.10
2019-01-18T14:02:48.236Z,5.60
2019-01-18T14:05:12.443Z,2.93
2019-01-18T14:07:39.629Z,3.70
2019-01-18T14:10:11.326Z,6.53
2019-01-18T14:12:38.493Z,2.60
2019-01-18T14:15:08.071Z,3.30
2019-01-18T14:17:35.254Z,3.67
2019-01-18T14:20:04.715Z,6.43
2019-01-18T14:22:31.902Z,4.33
2019-01-18T14:24:59.152Z,7.33
2019-01-18T14:27:26.355Z,3.80
2019-01-18T14:29:53.640Z,3.30
2019-01-18T14:32:20.969Z,4.03
2019-01-18T14:34:48.283Z,6.03
2019-01-18T14:37:15.475Z,3.53
2019-01-18T14:39:42.711Z,6.50
2019-01-18T14:42:09.902Z,3.80
2019-01-18T14:44:37.091Z,4.73
2019-01-18T14:47:04.387Z,6.47
2019-01-18T14:49:32.659Z,2.80
2019-01-18T14:51:59.922Z,12.80
2019-01-18T14:54:27.112Z,5.27
2019-01-18T14:56:54.287Z,4.57
2019-01-18T14:59:21.465Z,5.13
2019-01-18T15:01:48.643Z,4.93
2019-01-18T15:04:15.846Z,10.97
2019-01-18T15:06:43.021Z,14.33
2019-01-18T15:09:10.471Z,5.43
2019-01-18T15:11:37.726Z,9.63
2019-01-18T15:14:04.899Z,5.17
2019-01-18T15:16:32.108Z,5.43
2019-01-18T15:18:59.287Z,5.30
2019-01-18T15:21:26.486Z,5.50
2019-01-18T15:23:53.656Z,3.40
2019-01-18T15:26:20.844Z,4.83
2019-01-18T15:28:48.030Z,2.97
2019-01-18T15:31:15.197Z,6.77
2019-01-18T15:33:42.407Z,4.10
2019-01-18T15:36:09.590Z,5.77
2019-01-18T15:38:36.846Z,5.07
2019-01-18T15:41:04.048Z,5.60
2019-01-18T15:43:31.576Z,4.57
2019-01-18T15:45:58.806Z,4.93
2019-01-18T15:48:26.043Z,2.33
2019-01-18T15:50:53.236Z,6.43
2019-01-18T15:53:20.438Z,4.97
2019-01-18T15:55:47.627Z,7.37
2019-01-18T15:58:14.790Z,7.70
2019-01-18T16:00:42.814Z,4.23
2019-01-18T16:03:15.825Z,6.17
2019-01-18T16:05:38.958Z,5.13
2019-01-18T16:08:06.949Z,12.37
2019-01-18T16:10:34.122Z,5.00
2019-01-18T16:13:01.291Z,7.07
2019-01-18T16:15:30.136Z,4.77
2019-01-18T16:17:58.103Z,7.50
2019-01-18T16:20:25.294Z,7.63
2019-01-18T16:22:52.553Z,4.23
2019-01-18T16:25:23.902Z,9.70
2019-01-18T16:27:51.105Z,4.73
2019-01-18T16:30:19.738Z,6.63
2019-01-18T16:32:46.942Z,11.67
2019-01-18T16:35:14.781Z,6.90
2019-01-18T16:37:42.913Z,9.00
2019-01-18T16:40:11.989Z,10.37
2019-01-18T16:42:39.504Z,6.80
2019-01-18T16:45:08.326Z,8.00
2019-01-18T16:47:35.506Z,6.27
2019-01-18T16:50:02.732Z,4.33
2019-01-18T16:52:29.915Z,8.33
2019-01-18T16:54:57.092Z,9.53
2019-01-18T16:57:24.292Z,11.10
2019-01-18T16:59:51.481Z,17.93
2019-01-18T17:02:18.740Z,13.40
2019-01-18T17:04:45.902Z,7.43
2019-01-18T17:07:13.093Z,11.00
2019-01-18T17:09:40.309Z,7.43
2019-01-18T17:12:07.498Z,7.53
2019-01-18T17:14:34.665Z,10.73
2019-01-18T17:17:01.843Z,5.67
2019-01-18T17:19:29.035Z,9.20
2019-01-18T17:21:56.326Z,4.77
2019-01-18T17:24:23.499Z,8.83
2019-01-18T17:26:50.694Z,7.43
2019-01-18T17:29:17.881Z,6.50
2019-01-18T17:31:45.044Z,7.80
2019-01-18T17:34:12.241Z,8.27
2019-01-18T17:36:39.403Z,8.43
2019-01-18T17:39:26.325Z,8.03
2019-01-18T17:41:58.059Z,9.60
2019-01-18T17:44:45.190Z,7.43
2019-01-18T17:47:32.196Z,6.97
2019-01-18T17:50:04.029Z,6.03
2019-01-18T17:52:38.567Z,11.60
2019-01-18T17:55:07.469Z,4.57
2019-01-18T17:57:44.979Z,9.60
2019-01-18T18:00:22.729Z,5.17
2019-01-18T18:03:06.641Z,9.10
2019-01-18T18:05:52.059Z,11.87
2019-01-18T18:08:29.531Z,7.47
2019-01-18T18:11:04.783Z,7.27
2019-01-18T18:13:36.711Z,13.00
2019-01-18T18:16:05.543Z,5.73
2019-01-18T18:18:40.094Z,10.93
2019-01-18T18:21:11.763Z,5.93
2019-01-18T18:23:40.614Z,10.03
2019-01-18T18:26:24.518Z,17.70
2019-01-18T18:29:11.303Z,7.80
2019-01-18T18:31:54.945Z,7.43
2019-01-18T18:34:38.639Z,7.47
2019-01-18T18:37:07.542Z,8.63
2019-01-18T18:39:54.169Z,5.70
2019-01-18T18:42:28.290Z,2.97
2019-01-18T18:45:02.227Z,5.87
2019-01-18T18:47:48.704Z,10.83
2019-01-18T18:50:26.179Z,8.07
2019-01-18T18:53:00.516Z,5.57
2019-01-18T18:55:31.954Z,7.87
2019-01-18T18:58:06.722Z,6.33
2019-01-18T19:00:35.781Z,8.40
2019-01-18T19:03:10.128Z,11.87
2019-01-18T19:05:50.501Z,7.20
2019-01-18T19:08:35.579Z,7.60
2019-01-18T19:11:10.293Z,8.33
2019-01-18T19:13:41.998Z,8.80
2019-01-18T19:16:10.818Z,8.20
2019-01-18T19:18:55.924Z,3.93
2019-01-18T19:21:37.717Z,8.90
2019-01-18T19:24:06.687Z,7.77
2019-01-18T19:26:47.502Z,9.63
2019-01-18T19:29:22.319Z,11.13
2019-01-18T19:31:54.218Z,7.30
2019-01-18T19:34:41.754Z,8.40
2019-01-18T19:37:19.321Z,8.40
2019-01-18T19:39:48.245Z,8.33
2019-01-18T19:42:17.427Z,10.00
2019-01-18T19:44:52.292Z,8.07
2019-01-18T19:47:33.104Z,10.90
2019-01-18T19:50:14.086Z,10.33
2019-01-18T19:52:54.543Z,15.40
2019-01-18T19:55:35.338Z,14.87
2019-01-18T19:58:21.908Z,12.93
2019-01-18T20:00:50.789Z,10.53
2019-01-18T20:03:22.399Z,6.43
2019-01-18T20:06:07.464Z,8.33
2019-01-18T20:08:42.158Z,8.07
2019-01-18T20:11:25.762Z,10.20
2019-01-18T20:14:06.427Z,8.57
2019-01-18T20:16:41.139Z,13.23
2019-01-18T20:19:21.946Z,12.90
2019-01-18T20:22:07.268Z,13.80
2019-01-18T20:24:36.126Z,10.57
2019-01-18T20:27:13.524Z,11.90
2019-01-18T20:29:44.088Z,11.00
2019-01-18T20:32:21.784Z,10.30
2019-01-18T20:34:56.451Z,8.43
2019-01-18T20:37:40.024Z,11.10
2019-01-18T20:40:08.278Z,13.43
2019-01-18T20:42:39.946Z,9.80
2019-01-18T20:45:26.632Z,9.70
2019-01-18T20:47:56.098Z,12.40
2019-01-18T20:50:26.213Z,9.23
2019-01-18T20:52:57.642Z,10.47
2019-01-18T20:55:36.604Z,8.27
2019-01-18T20:58:21.865Z,6.97
2019-01-18T21:01:05.387Z,6.03
2019-01-18T21:03:39.925Z,6.87
2019-01-18T21:06:14.653Z,9.13
2019-01-18T21:08:43.544Z,6.63
2019-01-18T21:11:12.418Z,5.77
2019-01-18T21:13:41.378Z,9.87
2019-01-18T21:16:15.900Z,12.67
2019-01-18T21:18:47.695Z,9.63
2019-01-18T21:21:19.177Z,9.17
2019-01-18T21:23:50.716Z,9.10
2019-01-18T21:26:31.599Z,8.40
2019-01-18T21:29:03.874Z,7.90
2019-01-18T21:31:38.678Z,7.83
2019-01-18T21:34:10.408Z,9.07
2019-01-18T21:36:55.543Z,7.73
2019-01-18T21:39:36.387Z,9.20
2019-01-18T21:42:07.886Z,10.57
2019-01-18T21:44:54.262Z,9.83
2019-01-18T21:47:23.192Z,10.03
2019-01-18T21:49:51.999Z,8.27
2019-01-18T21:52:20.839Z,11.50
2019-01-18T21:54:52.309Z,10.93
2019-01-18T21:57:37.340Z,10.27
2019-01-18T22:00:06.148Z,10.03
2019-01-18T22:02:38.038Z,11.20
2019-01-18T22:05:09.527Z,13.07
2019-01-18T22:07:38.374Z,9.27
2019-01-18T22:10:23.776Z,6.70
2019-01-18T22:13:04.342Z,8.17
2019-01-18T22:15:33.190Z,6.47
2019-01-18T22:18:02.102Z,7.03
2019-01-18T22:20:33.617Z,7.53
2019-01-18T22:23:11.124Z,8.27
2019-01-18T22:25:42.943Z,16.87
2019-01-18T22:28:11.762Z,6.50
2019-01-18T22:30:49.570Z,7.03
2019-01-18T22:33:21.338Z,9.07
2019-01-18T22:35:59.222Z,9.33
2019-01-18T22:38:28.034Z,11.00
2019-01-18T22:41:08.831Z,6.50
2019-01-18T22:43:53.930Z,8.80
2019-01-18T22:46:39.295Z,4.23
2019-01-18T22:49:22.931Z,5.47
2019-01-18T22:51:54.426Z,9.00
2019-01-18T22:54:35.321Z,7.23
2019-01-18T22:57:10.041Z,11.13
2019-01-18T22:59:50.982Z,8.27
2019-01-18T23:02:36.286Z,12.57
2019-01-18T23:05:13.887Z,7.97
2019-01-18T23:07:42.705Z,11.40
2019-01-18T23:10:14.144Z,7.60
2019-01-18T23:12:51.883Z,10.70
2019-01-18T23:15:23.595Z,7.47
2019-01-18T23:17:52.396Z,11.00
2019-01-18T23:20:21.209Z,9.40
2019-01-18T23:22:58.957Z,7.73
2019-01-18T23:25:36.769Z,10.93
2019-01-18T23:28:11.302Z,8.23
2019-01-18T23:30:45.812Z,11.37
2019-01-18T23:33:20.704Z,6.23
2019-01-18T23:35:49.543Z,10.57
2019-01-18T23:38:18.347Z,17.07
2019-01-18T23:40:52.906Z,8.07
2019-01-18T23:43:30.744Z,8.73
2019-01-18T23:46:05.579Z,6.50
2019-01-18T23:48:46.237Z,7.10
2019-01-18T23:51:20.786Z,6.07
2019-01-18T23:53:52.264Z,6.93
2019-01-18T23:56:21.091Z,6.87
2019-01-18T23:58:58.563Z,8.77
